sensor_id;sensor_type;location;lat;lon;timestamp;pressure;altitude;pressure_sealevel;temperature;humidity
65666;BME280;52365;47.464;18.976;2022-08-11T00:00:12;100274.69;;;22.62;39.22
65666;BME280;52365;47.464;18.976;2022-08-11T00:00:48;100269.25;;;22.43;39.61
65666;BME280;52365;47.464;18.976;2022-08-11T00:01:26;100275.53;;;22.57;39.33
65666;BME280;52365;47.464;18.976;2022-08-11T00:02:03;100277.63;;;22.51;39.49
65666;BME280;52365;47.464;18.976;2022-08-11T00:02:49;100281.88;;;22.65;39.23
65666;BME280;52365;47.464;18.976;2022-08-11T00:03:26;100278.44;;;22.46;39.55
65666;BME280;52365;47.464;18.976;2022-08-11T00:04:03;100271.91;;;22.49;39.51
65666;BME280;52365;47.464;18.976;2022-08-11T00:04:41;100278.94;;;22.31;39.80
65666;BME280;52365;47.464;18.976;2022-08-11T00:05:20;100280.19;;;22.30;39.83
65666;BME280;52365;47.464;18.976;2022-08-11T00:05:56;100280.66;;;22.47;39.53
65666;BME280;52365;47.464;18.976;2022-08-11T00:06:37;100275.53;;;22.57;39.33
65666;BME280;52365;47.464;18.976;2022-08-11T00:07:14;100271.47;;;22.45;39.45
65666;BME280;52365;47.464;18.976;2022-08-11T00:07:52;100276.06;;;22.23;39.96
65666;BME280;52365;47.464;18.976;2022-08-11T00:08:30;100270.91;;;22.33;39.73
65666;BME280;52365;47.464;18.976;2022-08-11T00:09:10;100270.31;;;22.21;39.94
65666;BME280;52365;47.464;18.976;2022-08-11T00:09:47;100276.69;;;22.29;39.75
65666;BME280;52365;47.464;18.976;2022-08-11T00:10:26;100275.94;;;22.48;39.42
65666;BME280;52365;47.464;18.976;2022-08-11T00:11:06;100276.34;;;22.52;39.30
65666;BME280;52365;47.464;18.976;2022-08-11T00:11:45;100272.16;;;22.64;39.09
65666;BME280;52365;47.464;18.976;2022-08-11T00:12:24;100264.84;;;22.53;39.17
65666;BME280;52365;47.464;18.976;2022-08-11T00:13:03;100269.69;;;22.15;39.90
65666;BME280;52365;47.464;18.976;2022-08-11T00:13:45;100273.84;;;22.22;39.89
65666;BME280;52365;47.464;18.976;2022-08-11T00:14:26;100270.13;;;22.51;39.34
65666;BME280;52365;47.464;18.976;2022-08-11T00:15:03;100257.41;;;22.80;38.75
65666;BME280;52365;47.464;18.976;2022-08-11T00:15:43;100258.47;;;22.91;38.41
65666;BME280;52365;47.464;18.976;2022-08-11T00:16:24;100258.06;;;23.00;38.15
65666;BME280;52365;47.464;18.976;2022-08-11T00:17:03;100260.19;;;22.94;38.20
65666;BME280;52365;47.464;18.976;2022-08-11T00:17:40;100262.28;;;22.87;38.29
65666;BME280;52365;47.464;18.976;2022-08-11T00:18:17;100260.69;;;22.79;38.51
65666;BME280;52365;47.464;18.976;2022-08-11T00:18:55;100258.53;;;22.72;38.83
65666;BME280;52365;47.464;18.976;2022-08-11T00:19:43;100258.66;;;22.66;38.72
65666;BME280;52365;47.464;18.976;2022-08-11T00:20:19;100262.84;;;22.54;39.08
65666;BME280;52365;47.464;18.976;2022-08-11T00:20:59;100257.13;;;22.52;39.07
65666;BME280;52365;47.464;18.976;2022-08-11T00:21:40;100260.97;;;22.62;38.81
65666;BME280;52365;47.464;18.976;2022-08-11T00:22:21;100262.66;;;22.65;38.85
65666;BME280;52365;47.464;18.976;2022-08-11T00:23:07;100265.00;;;22.74;38.62
65666;BME280;52365;47.464;18.976;2022-08-11T00:23:53;100256.16;;;22.95;38.26
65666;BME280;52365;47.464;18.976;2022-08-11T00:24:34;100246.34;;;22.99;38.19
65666;BME280;52365;47.464;18.976;2022-08-11T00:25:16;100251.06;;;22.85;38.33
65666;BME280;52365;47.464;18.976;2022-08-11T00:25:53;100253.06;;;22.85;38.35
65666;BME280;52365;47.464;18.976;2022-08-11T00:26:30;100258.00;;;22.73;38.52
65666;BME280;52365;47.464;18.976;2022-08-11T00:27:07;100253.97;;;22.48;39.11
65666;BME280;52365;47.464;18.976;2022-08-11T00:27:45;100257.53;;;22.43;39.23
65666;BME280;52365;47.464;18.976;2022-08-11T00:28:34;100257.00;;;22.12;39.94
65666;BME280;52365;47.464;18.976;2022-08-11T00:29:11;100258.44;;;22.32;39.53
65666;BME280;52365;47.464;18.976;2022-08-11T00:29:53;100256.06;;;22.55;39.13
65666;BME280;52365;47.464;18.976;2022-08-11T00:30:39;100253.56;;;22.57;38.99
65666;BME280;52365;47.464;18.976;2022-08-11T00:31:29;100253.78;;;22.72;38.82
65666;BME280;52365;47.464;18.976;2022-08-11T00:32:12;100244.28;;;22.86;38.43
65666;BME280;52365;47.464;18.976;2022-08-11T00:32:56;100262.28;;;22.87;38.45
65666;BME280;52365;47.464;18.976;2022-08-11T00:33:43;100256.75;;;22.61;38.85
65666;BME280;52365;47.464;18.976;2022-08-11T00:34:24;100251.66;;;22.65;38.89
65666;BME280;52365;47.464;18.976;2022-08-11T00:35:02;100250.47;;;22.93;38.41
65666;BME280;52365;47.464;18.976;2022-08-11T00:35:39;100255.97;;;23.06;38.21
65666;BME280;52365;47.464;18.976;2022-08-11T00:36:17;100252.62;;;22.81;38.52
65666;BME280;52365;47.464;18.976;2022-08-11T00:37:00;100256.09;;;22.68;38.87
65666;BME280;52365;47.464;18.976;2022-08-11T00:37:38;100261.91;;;22.65;38.88
65666;BME280;52365;47.464;18.976;2022-08-11T00:38:15;100256.22;;;22.76;39.10
65666;BME280;52365;47.464;18.976;2022-08-11T00:38:52;100256.75;;;22.61;38.99
65666;BME280;52365;47.464;18.976;2022-08-11T00:39:37;100251.03;;;22.59;39.12
65666;BME280;52365;47.464;18.976;2022-08-11T00:40:41;100254.59;;;22.54;39.19
65666;BME280;52365;47.464;18.976;2022-08-11T00:44:35;100254.47;;;22.46;39.50
65666;BME280;52365;47.464;18.976;2022-08-11T00:45:23;100251.25;;;22.61;39.50
65666;BME280;52365;47.464;18.976;2022-08-11T00:46:11;100243.84;;;22.82;38.98
65666;BME280;52365;47.464;18.976;2022-08-11T00:47:20;100252.00;;;22.75;38.91
65666;BME280;52365;47.464;18.976;2022-08-11T00:48:06;100244.66;;;22.51;39.39
65666;BME280;52365;47.464;18.976;2022-08-11T00:48:49;100246.56;;;22.56;39.10
65666;BME280;52365;47.464;18.976;2022-08-11T00:50:46;100260.91;;;22.17;40.26
65666;BME280;52365;47.464;18.976;2022-08-11T00:51:31;100252.06;;;22.56;39.48
65666;BME280;52365;47.464;18.976;2022-08-11T00:53:29;100248.03;;;22.44;39.66
65666;BME280;52365;47.464;18.976;2022-08-11T01:00:16;100241.72;;;21.98;40.85
65666;BME280;52365;47.464;18.976;2022-08-11T01:05:48;100245.84;;;22.23;40.32
65666;BME280;52365;47.464;18.976;2022-08-11T01:07:56;100250.47;;;21.77;41.41
65666;BME280;52365;47.464;18.976;2022-08-11T01:15:47;100242.53;;;21.93;41.10
65666;BME280;52365;47.464;18.976;2022-08-11T01:21:17;100244.56;;;21.73;41.75
65666;BME280;52365;47.464;18.976;2022-08-11T01:22:18;100250.84;;;21.87;41.46
65666;BME280;52365;47.464;18.976;2022-08-11T01:31:49;100236.41;;;21.86;41.69
65666;BME280;52365;47.464;18.976;2022-08-11T01:38:34;100231.91;;;22.02;41.28
65666;BME280;52365;47.464;18.976;2022-08-11T01:42:32;100228.59;;;22.42;40.39
65666;BME280;52365;47.464;18.976;2022-08-11T01:45:17;100225.53;;;21.94;41.47
65666;BME280;52365;47.464;18.976;2022-08-11T01:48:27;100230.28;;;21.94;41.54
65666;BME280;52365;47.464;18.976;2022-08-11T01:49:20;100232.66;;;22.22;40.89
65666;BME280;52365;47.464;18.976;2022-08-11T01:50:11;100227.59;;;22.26;41.09
65666;BME280;52365;47.464;18.976;2022-08-11T01:51:12;100234.00;;;22.15;41.09
65666;BME280;52365;47.464;18.976;2022-08-11T01:54:15;100227.22;;;22.16;41.04
65666;BME280;52365;47.464;18.976;2022-08-11T01:55:13;100231.28;;;22.28;40.73
65666;BME280;52365;47.464;18.976;2022-08-11T01:56:45;100227.16;;;22.03;41.29
65666;BME280;52365;47.464;18.976;2022-08-11T01:58:59;100229.16;;;22.21;41.00
65666;BME280;52365;47.464;18.976;2022-08-11T01:59:47;100233.22;;;21.82;41.86
65666;BME280;52365;47.464;18.976;2022-08-11T02:00:28;100231.50;;;21.79;41.99
65666;BME280;52365;47.464;18.976;2022-08-11T02:01:30;100232.44;;;21.63;42.27
65666;BME280;52365;47.464;18.976;2022-08-11T02:02:40;100239.28;;;21.75;42.19
65666;BME280;52365;47.464;18.976;2022-08-11T02:03:36;100222.16;;;21.69;42.14
65666;BME280;52365;47.464;18.976;2022-08-11T02:04:24;100229.34;;;21.91;41.82
65666;BME280;52365;47.464;18.976;2022-08-11T02:05:26;100228.22;;;22.00;41.67
65666;BME280;52365;47.464;18.976;2022-08-11T02:06:25;100230.84;;;22.24;40.94
65666;BME280;52365;47.464;18.976;2022-08-11T02:09:28;100227.63;;;21.88;41.77
65666;BME280;52365;47.464;18.976;2022-08-11T02:10:21;100223.53;;;21.95;41.70
65666;BME280;52365;47.464;18.976;2022-08-11T02:11:26;100218.75;;;21.63;42.34
65666;BME280;52365;47.464;18.976;2022-08-11T02:12:21;100222.53;;;21.79;42.12
65666;BME280;52365;47.464;18.976;2022-08-11T02:13:56;100217.25;;;22.00;41.66
65666;BME280;52365;47.464;18.976;2022-08-11T02:14:30;100224.22;;;22.01;41.62
65666;BME280;52365;47.464;18.976;2022-08-11T02:15:19;100226.91;;;21.87;41.80
65666;BME280;52365;47.464;18.976;2022-08-11T02:16:09;100219.81;;;22.11;41.38
65666;BME280;52365;47.464;18.976;2022-08-11T02:17:14;100224.25;;;21.82;41.91
65666;BME280;52365;47.464;18.976;2022-08-11T02:18:35;100220.88;;;21.89;41.94
65666;BME280;52365;47.464;18.976;2022-08-11T02:21:05;100219.19;;;21.67;42.40
65666;BME280;52365;47.464;18.976;2022-08-11T02:23:35;100220.59;;;21.55;42.80
65666;BME280;52365;47.464;18.976;2022-08-11T02:24:22;100218.91;;;21.52;42.78
65666;BME280;52365;47.464;18.976;2022-08-11T02:25:06;100227.78;;;21.58;42.73
65666;BME280;52365;47.464;18.976;2022-08-11T02:26:40;100225.47;;;22.00;41.83
65666;BME280;52365;47.464;18.976;2022-08-11T02:27:22;100218.81;;;21.76;42.25
65666;BME280;52365;47.464;18.976;2022-08-11T02:28:12;100221.50;;;21.82;42.31
65666;BME280;52365;47.464;18.976;2022-08-11T02:30:03;100218.16;;;21.70;42.51
65666;BME280;52365;47.464;18.976;2022-08-11T02:32:21;100228.31;;;21.75;42.47
65666;BME280;52365;47.464;18.976;2022-08-11T02:33:23;100220.78;;;21.95;41.94
65666;BME280;52365;47.464;18.976;2022-08-11T02:35:07;100216.63;;;22.07;41.78
65666;BME280;52365;47.464;18.976;2022-08-11T02:36:35;100227.97;;;22.17;41.58
65666;BME280;52365;47.464;18.976;2022-08-11T02:37:40;100220.06;;;22.13;41.48
65666;BME280;52365;47.464;18.976;2022-08-11T02:39:12;100220.63;;;22.06;41.72
65666;BME280;52365;47.464;18.976;2022-08-11T02:41:07;100219.19;;;21.67;42.51
65666;BME280;52365;47.464;18.976;2022-08-11T02:42:25;100222.44;;;21.84;42.32
65666;BME280;52365;47.464;18.976;2022-08-11T02:43:20;100216.69;;;22.20;41.35
65666;BME280;52365;47.464;18.976;2022-08-11T02:44:12;100218.84;;;22.27;41.29
65666;BME280;52365;47.464;18.976;2022-08-11T02:47:04;100214.25;;;22.17;41.43
65666;BME280;52365;47.464;18.976;2022-08-11T02:47:58;100215.34;;;22.08;41.54
65666;BME280;52365;47.464;18.976;2022-08-11T02:49:07;100218.56;;;22.12;41.46
65666;BME280;52365;47.464;18.976;2022-08-11T02:50:24;100214.03;;;22.15;41.48
65666;BME280;52365;47.464;18.976;2022-08-11T02:57:42;100204.66;;;21.72;42.65
65666;BME280;52365;47.464;18.976;2022-08-11T02:58:35;100211.03;;;21.80;42.49
65666;BME280;52365;47.464;18.976;2022-08-11T03:00:15;100212.81;;;21.78;42.55
65666;BME280;52365;47.464;18.976;2022-08-11T03:01:06;100205.69;;;21.88;42.29
65666;BME280;52365;47.464;18.976;2022-08-11T03:02:39;100218.56;;;22.12;41.78
65666;BME280;52365;47.464;18.976;2022-08-11T03:03:41;100209.19;;;22.21;41.56
65666;BME280;52365;47.464;18.976;2022-08-11T03:04:29;100209.78;;;22.46;40.97
65666;BME280;52365;47.464;18.976;2022-08-11T03:06:10;100213.06;;;22.12;41.71
65666;BME280;52365;47.464;18.976;2022-08-11T03:06:51;100213.22;;;22.20;41.63
65666;BME280;52365;47.464;18.976;2022-08-11T03:08:22;100212.94;;;22.04;42.13
65666;BME280;52365;47.464;18.976;2022-08-11T03:10:19;100217.44;;;22.02;41.98
65666;BME280;52365;47.464;18.976;2022-08-11T03:12:42;100205.41;;;22.24;41.48
65666;BME280;52365;47.464;18.976;2022-08-11T03:13:42;100214.59;;;21.75;42.67
65666;BME280;52365;47.464;18.976;2022-08-11T03:14:55;100211.53;;;21.98;42.15
65666;BME280;52365;47.464;18.976;2022-08-11T03:16:55;100218.22;;;21.83;42.40
65666;BME280;52365;47.464;18.976;2022-08-11T03:17:40;100215.94;;;21.69;42.65
65666;BME280;52365;47.464;18.976;2022-08-11T03:18:32;100221.78;;;21.78;42.61
65666;BME280;52365;47.464;18.976;2022-08-11T03:19:21;100223.59;;;22.08;42.05
65666;BME280;52365;47.464;18.976;2022-08-11T03:20:33;100226.22;;;22.00;42.13
65666;BME280;52365;47.464;18.976;2022-08-11T03:21:20;100218.84;;;22.08;41.93
65666;BME280;52365;47.464;18.976;2022-08-11T03:22:15;100217.03;;;22.30;42.43
65666;BME280;52365;47.464;18.976;2022-08-11T03:23:10;100214.78;;;21.96;42.41
65666;BME280;52365;47.464;18.976;2022-08-11T03:23:58;100215.38;;;21.89;42.44
65666;BME280;52365;47.464;18.976;2022-08-11T03:25:36;100218.16;;;21.51;43.21
65666;BME280;52365;47.464;18.976;2022-08-11T03:28:01;100208.22;;;21.48;43.29
65666;BME280;52365;47.464;18.976;2022-08-11T03:29:22;100209.16;;;21.32;43.80
65666;BME280;52365;47.464;18.976;2022-08-11T03:30:08;100212.16;;;21.53;43.40
65666;BME280;52365;47.464;18.976;2022-08-11T03:31:31;100220.28;;;21.77;42.72
65666;BME280;52365;47.464;18.976;2022-08-11T03:32:32;100222.81;;;21.75;42.73
65666;BME280;52365;47.464;18.976;2022-08-11T03:34:22;100217.72;;;21.66;42.90
65666;BME280;52365;47.464;18.976;2022-08-11T03:35:01;100221.41;;;21.87;42.42
65666;BME280;52365;47.464;18.976;2022-08-11T03:36:01;100216.44;;;21.67;42.73
65666;BME280;52365;47.464;18.976;2022-08-11T03:38:26;100225.56;;;21.75;42.52
65666;BME280;52365;47.464;18.976;2022-08-11T03:39:30;100211.34;;;21.58;42.87
65666;BME280;52365;47.464;18.976;2022-08-11T03:40:32;100217.56;;;21.58;42.89
65666;BME280;52365;47.464;18.976;2022-08-11T03:42:52;100220.28;;;21.77;42.43
65666;BME280;52365;47.464;18.976;2022-08-11T03:44:06;100224.81;;;21.75;42.59
65666;BME280;52365;47.464;18.976;2022-08-11T03:45:32;100218.75;;;21.63;42.85
65666;BME280;52365;47.464;18.976;2022-08-11T03:46:19;100215.16;;;22.06;41.95
65666;BME280;52365;47.464;18.976;2022-08-11T03:48:19;100218.22;;;21.83;42.28
65666;BME280;52365;47.464;18.976;2022-08-11T03:51:37;100221.16;;;22.04;41.88
65666;BME280;52365;47.464;18.976;2022-08-11T03:55:33;100222.28;;;21.96;42.12
65666;BME280;52365;47.464;18.976;2022-08-11T04:05:04;100230.06;;;22.43;41.79
65666;BME280;52365;47.464;18.976;2022-08-11T04:11:12;100234.78;;;21.78;42.37
65666;BME280;52365;47.464;18.976;2022-08-11T04:12:11;100229.31;;;22.10;41.51
65666;BME280;52365;47.464;18.976;2022-08-11T04:16:45;100226.91;;;22.52;42.49
65666;BME280;52365;47.464;18.976;2022-08-11T04:19:02;100231.59;;;22.25;41.60
65666;BME280;52365;47.464;18.976;2022-08-11T04:35:52;100245.03;;;22.28;41.09
65666;BME280;52365;47.464;18.976;2022-08-11T04:37:34;100230.28;;;22.45;41.03
65666;BME280;52365;47.464;18.976;2022-08-11T04:39:07;100250.31;;;22.26;41.29
65666;BME280;52365;47.464;18.976;2022-08-11T04:47:43;100240.37;;;22.82;40.37
65666;BME280;52365;47.464;18.976;2022-08-11T04:50:19;100243.50;;;23.05;39.69
65666;BME280;52365;47.464;18.976;2022-08-11T04:51:35;100235.81;;;22.58;40.33
65666;BME280;52365;47.464;18.976;2022-08-11T04:52:55;100245.88;;;22.82;39.92
65666;BME280;52365;47.464;18.976;2022-08-11T04:55:25;100238.19;;;23.20;39.48
65666;BME280;52365;47.464;18.976;2022-08-11T04:56:23;100243.03;;;22.87;39.81
65666;BME280;52365;47.464;18.976;2022-08-11T04:57:40;100236.25;;;22.75;40.16
65666;BME280;52365;47.464;18.976;2022-08-11T04:59:20;100245.41;;;22.65;40.63
65666;BME280;52365;47.464;18.976;2022-08-11T05:00:17;100239.44;;;22.79;40.76
65666;BME280;52365;47.464;18.976;2022-08-11T05:01:23;100234.97;;;22.63;40.37
65666;BME280;52365;47.464;18.976;2022-08-11T05:03:45;100235.97;;;23.19;39.06
65666;BME280;52365;47.464;18.976;2022-08-11T05:12:35;100237.88;;;22.97;39.58
65666;BME280;52365;47.464;18.976;2022-08-11T05:13:31;100245.56;;;23.52;39.10
65666;BME280;52365;47.464;18.976;2022-08-11T05:14:35;100245.78;;;22.87;39.43
65666;BME280;52365;47.464;18.976;2022-08-11T05:15:48;100242.84;;;22.99;39.57
65666;BME280;52365;47.464;18.976;2022-08-11T05:16:47;100242.56;;;23.76;38.25
65666;BME280;52365;47.464;18.976;2022-08-11T05:18:09;100246.47;;;24.15;37.56
65666;BME280;52365;47.464;18.976;2022-08-11T05:19:15;100241.78;;;24.10;37.55
65666;BME280;52365;47.464;18.976;2022-08-11T05:20:11;100245.28;;;23.16;38.95
65666;BME280;52365;47.464;18.976;2022-08-11T05:21:10;100249.94;;;23.21;39.23
65666;BME280;52365;47.464;18.976;2022-08-11T05:22:09;100241.78;;;23.42;38.55
65666;BME280;52365;47.464;18.976;2022-08-11T05:23:07;100241.63;;;23.60;38.13
65666;BME280;52365;47.464;18.976;2022-08-11T05:24:12;100245.97;;;23.69;38.13
65666;BME280;52365;47.464;18.976;2022-08-11T05:25:14;100247.53;;;24.12;37.16
65666;BME280;52365;47.464;18.976;2022-08-11T05:26:12;100247.28;;;23.89;37.27
65666;BME280;52365;47.464;18.976;2022-08-11T05:27:11;100254.81;;;24.09;37.10
65666;BME280;52365;47.464;18.976;2022-08-11T05:28:13;100253.47;;;24.37;36.33
65666;BME280;52365;47.464;18.976;2022-08-11T05:29:48;100253.13;;;24.90;35.27
65666;BME280;52365;47.464;18.976;2022-08-11T05:30:47;100258.88;;;24.29;36.34
65666;BME280;52365;47.464;18.976;2022-08-11T05:31:45;100263.22;;;24.59;35.71
65666;BME280;52365;47.464;18.976;2022-08-11T05:32:44;100268.97;;;24.97;35.13
65666;BME280;52365;47.464;18.976;2022-08-11T05:34:22;100260.50;;;25.16;35.11
65666;BME280;52365;47.464;18.976;2022-08-11T05:35:27;100260.84;;;24.63;35.70
65666;BME280;52365;47.464;18.976;2022-08-11T05:36:16;100259.53;;;24.85;35.40
65666;BME280;52365;47.464;18.976;2022-08-11T05:37:57;100256.59;;;25.99;34.25
65666;BME280;52365;47.464;18.976;2022-08-11T05:39:28;100255.25;;;25.33;34.12
65666;BME280;52365;47.464;18.976;2022-08-11T05:40:24;100257.56;;;24.65;35.47
65666;BME280;52365;47.464;18.976;2022-08-11T05:41:23;100257.25;;;25.04;35.15
65666;BME280;52365;47.464;18.976;2022-08-11T05:42:21;100267.66;;;25.19;34.74
65666;BME280;52365;47.464;18.976;2022-08-11T05:43:19;100261.91;;;25.46;33.80
65666;BME280;52365;47.464;18.976;2022-08-11T05:44:19;100260.84;;;25.56;33.54
65666;BME280;52365;47.464;18.976;2022-08-11T05:45:16;100263.56;;;25.49;33.66
65666;BME280;52365;47.464;18.976;2022-08-11T05:46:11;100266.41;;;25.20;34.36
65666;BME280;52365;47.464;18.976;2022-08-11T05:47:06;100261.19;;;26.04;33.15
65666;BME280;52365;47.464;18.976;2022-08-11T05:48:02;100255.94;;;25.26;34.16
65666;BME280;52365;47.464;18.976;2022-08-11T05:48:57;100258.41;;;25.09;34.45
65666;BME280;52365;47.464;18.976;2022-08-11T05:49:52;100261.06;;;24.94;34.98
65666;BME280;52365;47.464;18.976;2022-08-11T05:50:52;100261.50;;;24.35;36.24
65666;BME280;52365;47.464;18.976;2022-08-11T05:51:47;100262.03;;;25.04;34.99
65666;BME280;52365;47.464;18.976;2022-08-11T05:52:45;100264.16;;;24.90;35.16
65666;BME280;52365;47.464;18.976;2022-08-11T05:53:51;100267.16;;;25.00;34.87
65666;BME280;52365;47.464;18.976;2022-08-11T05:54:47;100260.47;;;24.87;35.01
65666;BME280;52365;47.464;18.976;2022-08-11T05:55:44;100261.19;;;25.53;33.88
65666;BME280;52365;47.464;18.976;2022-08-11T05:56:48;100260.84;;;26.08;32.96
65666;BME280;52365;47.464;18.976;2022-08-11T05:57:30;100257.91;;;26.36;32.32
65666;BME280;52365;47.464;18.976;2022-08-11T05:58:08;100267.87;;;26.62;32.35
65666;BME280;52365;47.464;18.976;2022-08-11T05:58:49;100271.19;;;26.92;31.75
65666;BME280;52365;47.464;18.976;2022-08-11T05:59:26;100273.91;;;27.22;31.36
65666;BME280;52365;47.464;18.976;2022-08-11T06:00:05;100266.16;;;27.69;30.45
65666;BME280;52365;47.464;18.976;2022-08-11T06:00:46;100277.91;;;27.44;30.21
65666;BME280;52365;47.464;18.976;2022-08-11T06:01:27;100271.94;;;26.39;31.62
65666;BME280;52365;47.464;18.976;2022-08-11T06:02:07;100269.56;;;26.50;31.78
65666;BME280;52365;47.464;18.976;2022-08-11T06:02:48;100277.59;;;27.17;30.98
65666;BME280;52365;47.464;18.976;2022-08-11T06:03:28;100266.19;;;27.05;31.56
65666;BME280;52365;47.464;18.976;2022-08-11T06:04:05;100275.00;;;27.04;30.88
65666;BME280;52365;47.464;18.976;2022-08-11T06:04:56;100272.41;;;27.29;30.72
65666;BME280;52365;47.464;18.976;2022-08-11T06:05:34;100278.88;;;27.72;30.04
65666;BME280;52365;47.464;18.976;2022-08-11T06:06:11;100268.78;;;26.96;30.60
65666;BME280;52365;47.464;18.976;2022-08-11T06:06:53;100276.31;;;27.18;30.59
65666;BME280;52365;47.464;18.976;2022-08-11T06:07:31;100271.34;;;27.01;30.76
65666;BME280;52365;47.464;18.976;2022-08-11T06:08:08;100266.19;;;26.90;31.05
65666;BME280;52365;47.464;18.976;2022-08-11T06:08:44;100272.81;;;27.02;30.82
65666;BME280;52365;47.464;18.976;2022-08-11T06:10:08;100269.25;;;27.80;29.69
65666;BME280;52365;47.464;18.976;2022-08-11T06:10:45;100279.94;;;27.36;29.87
65666;BME280;52365;47.464;18.976;2022-08-11T06:11:23;100276.75;;;26.53;31.20
65666;BME280;52365;47.464;18.976;2022-08-11T06:12:10;100267.34;;;26.49;31.60
65666;BME280;52365;47.464;18.976;2022-08-11T06:12:52;100281.63;;;26.01;32.35
65666;BME280;52365;47.464;18.976;2022-08-11T06:13:31;100282.50;;;25.89;32.58
65666;BME280;52365;47.464;18.976;2022-08-11T06:14:08;100272.62;;;26.24;32.27
65666;BME280;52365;47.464;18.976;2022-08-11T06:14:52;100273.59;;;26.80;31.09
65666;BME280;52365;47.464;18.976;2022-08-11T06:15:31;100268.25;;;26.51;31.74
65666;BME280;52365;47.464;18.976;2022-08-11T06:16:10;100271.97;;;26.69;31.16
65666;BME280;52365;47.464;18.976;2022-08-11T06:16:50;100277.31;;;26.52;31.59
65666;BME280;52365;47.464;18.976;2022-08-11T06:17:31;100266.88;;;25.99;32.47
65666;BME280;52365;47.464;18.976;2022-08-11T06:18:09;100275.53;;;26.03;32.50
65666;BME280;52365;47.464;18.976;2022-08-11T06:18:47;100274.72;;;26.46;31.84
65666;BME280;52365;47.464;18.976;2022-08-11T06:19:33;100276.56;;;26.74;31.61
65666;BME280;52365;47.464;18.976;2022-08-11T06:20:12;100275.91;;;27.77;30.07
65666;BME280;52365;47.464;18.976;2022-08-11T06:20:51;100273.53;;;28.31;28.96
65666;BME280;52365;47.464;18.976;2022-08-11T06:21:32;100271.34;;;29.15;27.83
65666;BME280;52365;47.464;18.976;2022-08-11T06:22:10;100269.69;;;28.77;27.83
65666;BME280;52365;47.464;18.976;2022-08-11T06:22:55;100267.28;;;28.56;28.43
65666;BME280;52365;47.464;18.976;2022-08-11T06:23:32;100273.00;;;29.18;27.54
65666;BME280;52365;47.464;18.976;2022-08-11T06:24:13;100272.88;;;29.60;27.19
65666;BME280;52365;47.464;18.976;2022-08-11T06:24:55;100274.25;;;30.23;26.15
65666;BME280;52365;47.464;18.976;2022-08-11T06:25:33;100268.16;;;29.80;26.08
65666;BME280;52365;47.464;18.976;2022-08-11T06:26:11;100267.13;;;29.75;26.71
65666;BME280;52365;47.464;18.976;2022-08-11T06:26:52;100273.09;;;29.99;26.35
65666;BME280;52365;47.464;18.976;2022-08-11T06:27:31;100270.66;;;30.49;25.83
65666;BME280;52365;47.464;18.976;2022-08-11T06:28:09;100263.87;;;30.89;25.42
65666;BME280;52365;47.464;18.976;2022-08-11T06:28:46;100260.38;;;31.37;24.60
65666;BME280;52365;47.464;18.976;2022-08-11T06:29:24;100274.56;;;31.12;24.49
65666;BME280;52365;47.464;18.976;2022-08-11T06:30:01;100268.13;;;31.00;24.68
65666;BME280;52365;47.464;18.976;2022-08-11T06:30:48;100265.03;;;30.76;24.85
65666;BME280;52365;47.464;18.976;2022-08-11T06:31:25;100274.13;;;31.25;24.74
65666;BME280;52365;47.464;18.976;2022-08-11T06:32:02;100268.13;;;31.39;25.37
65666;BME280;52365;47.464;18.976;2022-08-11T06:32:44;100268.09;;;31.58;25.19
65666;BME280;52365;47.464;18.976;2022-08-11T06:33:32;100272.81;;;30.78;25.17
65666;BME280;52365;47.464;18.976;2022-08-11T06:34:18;100272.00;;;30.58;25.22
65666;BME280;52365;47.464;18.976;2022-08-11T06:36:11;100268.25;;;31.12;24.31
65666;BME280;52365;47.464;18.976;2022-08-11T06:38:22;100272.13;;;30.14;25.43
65666;BME280;52365;47.464;18.976;2022-08-11T06:40:12;100268.59;;;30.03;25.51
65666;BME280;52365;47.464;18.976;2022-08-11T06:40:58;100275.59;;;31.46;24.11
65666;BME280;52365;47.464;18.976;2022-08-11T06:42:25;100273.03;;;31.79;23.09
65666;BME280;52365;47.464;18.976;2022-08-11T06:43:21;100271.22;;;31.14;23.88
65666;BME280;52365;47.464;18.976;2022-08-11T06:44:42;100267.94;;;30.69;24.50
65666;BME280;52365;47.464;18.976;2022-08-11T06:45:35;100275.75;;;31.09;24.58
65666;BME280;52365;47.464;18.976;2022-08-11T06:46:22;100266.75;;;30.62;24.60
65666;BME280;52365;47.464;18.976;2022-08-11T06:47:11;100272.06;;;31.16;24.32
65666;BME280;52365;47.464;18.976;2022-08-11T06:47:48;100267.09;;;30.95;24.42
65666;BME280;52365;47.464;18.976;2022-08-11T06:48:24;100274.72;;;30.95;24.54
65666;BME280;52365;47.464;18.976;2022-08-11T06:49:01;100273.84;;;30.92;24.30
65666;BME280;52365;47.464;18.976;2022-08-11T06:49:45;100265.34;;;31.19;23.86
65666;BME280;52365;47.464;18.976;2022-08-11T06:50:41;100258.91;;;30.31;24.64
65666;BME280;52365;47.464;18.976;2022-08-11T06:51:46;100273.03;;;29.89;25.49
65666;BME280;52365;47.464;18.976;2022-08-11T06:52:31;100275.47;;;31.44;23.72
65666;BME280;52365;47.464;18.976;2022-08-11T06:53:09;100267.28;;;30.51;24.56
65666;BME280;52365;47.464;18.976;2022-08-11T06:53:51;100269.00;;;30.93;23.96
65666;BME280;52365;47.464;18.976;2022-08-11T06:54:29;100269.72;;;31.51;23.47
65666;BME280;52365;47.464;18.976;2022-08-11T06:55:11;100272.44;;;31.90;22.76
65666;BME280;52365;47.464;18.976;2022-08-11T06:55:48;100273.72;;;32.40;22.63
65666;BME280;52365;47.464;18.976;2022-08-11T06:56:45;100269.59;;;32.00;22.73